sensor_id;sensor_type;location;lat;lon;timestamp;pressure;altitude;pressure_sealevel;temperature;humidity
46534;BME280;32260;52.008;4.752;2022-08-16T00:00:33;100630.25;;;23.25;58.71
46534;BME280;32260;52.008;4.752;2022-08-16T00:03:01;100633.06;;;23.23;58.90
46534;BME280;32260;52.008;4.752;2022-08-16T00:05:29;100637.63;;;23.23;58.62
46534;BME280;32260;52.008;4.752;2022-08-16T00:07:56;100641.31;;;23.22;59.30
46534;BME280;32260;52.008;4.752;2022-08-16T00:10:25;100649.53;;;23.20;59.30
46534;BME280;32260;52.008;4.752;2022-08-16T00:12:53;100651.47;;;23.18;59.25
46534;BME280;32260;52.008;4.752;2022-08-16T00:15:23;100643.50;;;23.17;59.04
46534;BME280;32260;52.008;4.752;2022-08-16T00:17:50;100647.34;;;23.13;59.10
46534;BME280;32260;52.008;4.752;2022-08-16T00:20:17;100650.19;;;23.11;58.96
46534;BME280;32260;52.008;4.752;2022-08-16T00:22:44;100658.28;;;23.11;58.82
46534;BME280;32260;52.008;4.752;2022-08-16T00:25:13;100653.88;;;23.10;59.28
46534;BME280;32260;52.008;4.752;2022-08-16T00:27:40;100663.06;;;23.07;59.43
46534;BME280;32260;52.008;4.752;2022-08-16T00:30:08;100659.50;;;23.07;59.33
46534;BME280;32260;52.008;4.752;2022-08-16T00:32:36;100659.72;;;23.04;59.35
46534;BME280;32260;52.008;4.752;2022-08-16T00:35:05;100659.00;;;23.02;59.81
46534;BME280;32260;52.008;4.752;2022-08-16T00:37:31;100663.66;;;23.00;59.57
46534;BME280;32260;52.008;4.752;2022-08-16T00:39:57;100663.66;;;23.00;59.83
46534;BME280;32260;52.008;4.752;2022-08-16T00:42:25;100661.91;;;22.99;59.82
46534;BME280;32260;52.008;4.752;2022-08-16T00:44:55;100665.38;;;23.01;59.70
46534;BME280;32260;52.008;4.752;2022-08-16T00:47:23;100668.31;;;22.98;59.98
46534;BME280;32260;52.008;4.752;2022-08-16T00:49:50;100656.75;;;22.96;59.73
46534;BME280;32260;52.008;4.752;2022-08-16T00:52:16;100667.66;;;22.94;59.44
46534;BME280;32260;52.008;4.752;2022-08-16T00:54:43;100661.28;;;22.95;59.85
46534;BME280;32260;52.008;4.752;2022-08-16T00:57:09;100668.53;;;22.94;60.41
46534;BME280;32260;52.008;4.752;2022-08-16T00:59:37;100666.06;;;22.91;60.82
46534;BME280;32260;52.008;4.752;2022-08-16T01:02:07;100677.88;;;22.90;60.30
46534;BME280;32260;52.008;4.752;2022-08-16T01:04:34;100664.56;;;22.87;60.26
46534;BME280;32260;52.008;4.752;2022-08-16T01:07:03;100664.56;;;22.87;60.30
46534;BME280;32260;52.008;4.752;2022-08-16T01:09:33;100665.78;;;22.83;61.60
46534;BME280;32260;52.008;4.752;2022-08-16T01:12:03;100664.06;;;22.82;60.81
46534;BME280;32260;52.008;4.752;2022-08-16T01:14:40;100661.56;;;22.79;60.66
46534;BME280;32260;52.008;4.752;2022-08-16T01:17:28;100660.91;;;22.88;60.97
46534;BME280;32260;52.008;4.752;2022-08-16T01:19:59;100660.84;;;22.77;61.23
46534;BME280;32260;52.008;4.752;2022-08-16T01:22:37;100660.72;;;22.78;61.06
46534;BME280;32260;52.008;4.752;2022-08-16T01:25:12;100657.38;;;22.75;61.50
46534;BME280;32260;52.008;4.752;2022-08-16T01:27:46;100660.09;;;22.75;61.41
46534;BME280;32260;52.008;4.752;2022-08-16T01:30:19;100663.75;;;22.74;61.21
46534;BME280;32260;52.008;4.752;2022-08-16T01:32:45;100664.84;;;22.71;61.14
46534;BME280;32260;52.008;4.752;2022-08-16T01:35:20;100668.44;;;22.72;61.32
46534;BME280;32260;52.008;4.752;2022-08-16T01:37:52;100670.50;;;22.68;61.47
46534;BME280;32260;52.008;4.752;2022-08-16T01:40:22;100666.19;;;22.66;61.21
46534;BME280;32260;52.008;4.752;2022-08-16T01:42:49;100664.66;;;22.61;61.28
46534;BME280;32260;52.008;4.752;2022-08-16T01:45:17;100664.66;;;22.61;61.34
46534;BME280;32260;52.008;4.752;2022-08-16T01:47:45;100652.16;;;22.60;61.47
46534;BME280;32260;52.008;4.752;2022-08-16T01:50:12;100667.47;;;22.60;61.56
46534;BME280;32260;52.008;4.752;2022-08-16T01:52:39;100654.09;;;22.58;61.30
46534;BME280;32260;52.008;4.752;2022-08-16T01:55:07;100660.59;;;22.56;61.93
46534;BME280;32260;52.008;4.752;2022-08-16T01:57:34;100668.81;;;22.54;61.72
46534;BME280;32260;52.008;4.752;2022-08-16T02:00:04;100660.72;;;22.54;61.84
46534;BME280;32260;52.008;4.752;2022-08-16T02:02:30;100659.00;;;22.53;61.87
46534;BME280;32260;52.008;4.752;2022-08-16T02:04:57;100651.72;;;22.54;61.87
46534;BME280;32260;52.008;4.752;2022-08-16T02:07:25;100650.00;;;22.53;61.85
46534;BME280;32260;52.008;4.752;2022-08-16T02:09:51;100650.00;;;22.53;61.75
46534;BME280;32260;52.008;4.752;2022-08-16T02:12:18;100647.44;;;22.51;61.96
46534;BME280;32260;52.008;4.752;2022-08-16T02:14:45;100649.38;;;22.49;61.79
46534;BME280;32260;52.008;4.752;2022-08-16T02:17:11;100653.06;;;22.48;61.56
46534;BME280;32260;52.008;4.752;2022-08-16T02:19:41;100654.88;;;22.48;62.01
46534;BME280;32260;52.008;4.752;2022-08-16T02:22:11;100656.84;;;22.45;62.06
46534;BME280;32260;52.008;4.752;2022-08-16T02:24:40;100658.66;;;22.45;61.60
46534;BME280;32260;52.008;4.752;2022-08-16T02:27:06;100657.59;;;22.48;61.51
46534;BME280;32260;52.008;4.752;2022-08-16T02:29:33;100657.59;;;22.48;61.38
46534;BME280;32260;52.008;4.752;2022-08-16T02:31:59;100664.84;;;22.47;61.54
46534;BME280;32260;52.008;4.752;2022-08-16T02:34:25;100661.16;;;22.48;61.61
46534;BME280;32260;52.008;4.752;2022-08-16T02:36:52;100657.59;;;22.48;61.64
46534;BME280;32260;52.008;4.752;2022-08-16T02:39:18;100660.41;;;22.46;61.56
46534;BME280;32260;52.008;4.752;2022-08-16T02:41:47;100649.59;;;22.46;61.75
46534;BME280;32260;52.008;4.752;2022-08-16T02:44:14;100653.28;;;22.45;62.25
46534;BME280;32260;52.008;4.752;2022-08-16T02:46:42;100656.94;;;22.44;61.96
46534;BME280;32260;52.008;4.752;2022-08-16T02:49:08;100657.91;;;22.43;61.61
46534;BME280;32260;52.008;4.752;2022-08-16T02:51:36;100655.22;;;22.43;62.03
46534;BME280;32260;52.008;4.752;2022-08-16T02:54:04;100652.50;;;22.43;61.58
46534;BME280;32260;52.008;4.752;2022-08-16T02:56:31;100646.38;;;22.41;61.99
46534;BME280;32260;52.008;4.752;2022-08-16T02:58:58;100646.38;;;22.41;61.83
46534;BME280;32260;52.008;4.752;2022-08-16T03:01:27;100652.63;;;22.41;62.00
46534;BME280;32260;52.008;4.752;2022-08-16T03:03:58;100651.78;;;22.41;62.26
46534;BME280;32260;52.008;4.752;2022-08-16T03:06:28;100652.06;;;22.36;62.05
46534;BME280;32260;52.008;4.752;2022-08-16T03:08:55;100660.41;;;22.33;62.15
46534;BME280;32260;52.008;4.752;2022-08-16T03:11:21;100659.78;;;22.29;62.13
46534;BME280;32260;52.008;4.752;2022-08-16T03:13:51;100651.75;;;22.28;62.41
46534;BME280;32260;52.008;4.752;2022-08-16T03:16:18;100652.84;;;22.25;62.34
46534;BME280;32260;52.008;4.752;2022-08-16T03:18:44;100643.16;;;22.23;62.75
46534;BME280;32260;52.008;4.752;2022-08-16T03:21:11;100640.56;;;22.21;62.46
46534;BME280;32260;52.008;4.752;2022-08-16T03:23:38;100642.50;;;22.19;62.61
46534;BME280;32260;52.008;4.752;2022-08-16T03:26:04;100646.28;;;22.17;62.87
46534;BME280;32260;52.008;4.752;2022-08-16T03:28:31;100647.38;;;22.14;62.89
46534;BME280;32260;52.008;4.752;2022-08-16T03:30:57;100655.69;;;22.11;62.77
46534;BME280;32260;52.008;4.752;2022-08-16T03:33:23;100646.97;;;22.07;62.93
46534;BME280;32260;52.008;4.752;2022-08-16T03:35:50;100650.75;;;22.05;63.40
46534;BME280;32260;52.008;4.752;2022-08-16T03:38:17;100647.28;;;22.03;63.45
46534;BME280;32260;52.008;4.752;2022-08-16T03:40:43;100654.59;;;22.01;63.25
46534;BME280;32260;52.008;4.752;2022-08-16T03:43:11;100651.19;;;21.98;63.63
46534;BME280;32260;52.008;4.752;2022-08-16T03:45:39;100653.13;;;21.96;63.48
46534;BME280;32260;52.008;4.752;2022-08-16T03:48:07;100649.69;;;21.94;63.65
46534;BME280;32260;52.008;4.752;2022-08-16T03:50:33;100651.38;;;21.95;63.49
46534;BME280;32260;52.008;4.752;2022-08-16T03:53:04;100652.16;;;21.97;63.49
46534;BME280;32260;52.008;4.752;2022-08-16T03:55:30;100656.13;;;21.92;63.99
46534;BME280;32260;52.008;4.752;2022-08-16T03:57:56;100657.97;;;21.91;63.90
46534;BME280;32260;52.008;4.752;2022-08-16T04:00:28;100649.88;;;21.91;63.98
46534;BME280;32260;52.008;4.752;2022-08-16T04:02:57;100658.09;;;21.90;63.68
46534;BME280;32260;52.008;4.752;2022-08-16T04:05:24;100665.31;;;21.89;63.75
46534;BME280;32260;52.008;4.752;2022-08-16T04:07:50;100673.38;;;21.89;63.67
46534;BME280;32260;52.008;4.752;2022-08-16T04:10:16;100673.38;;;21.89;63.80
46534;BME280;32260;52.008;4.752;2022-08-16T04:12:44;100676.09;;;21.89;63.44
46534;BME280;32260;52.008;4.752;2022-08-16T04:15:13;100674.38;;;21.88;63.49
46534;BME280;32260;52.008;4.752;2022-08-16T04:17:40;100673.63;;;21.86;63.71
46534;BME280;32260;52.008;4.752;2022-08-16T04:20:07;100689.81;;;21.86;63.88
46534;BME280;32260;52.008;4.752;2022-08-16T04:22:35;100686.47;;;21.83;64.26
46534;BME280;32260;52.008;4.752;2022-08-16T04:25:02;100703.59;;;21.81;64.07
46534;BME280;32260;52.008;4.752;2022-08-16T04:27:28;100700.25;;;21.78;64.49
46534;BME280;32260;52.008;4.752;2022-08-16T04:29:55;100700.47;;;21.75;64.62
46534;BME280;32260;52.008;4.752;2022-08-16T04:32:22;100700.38;;;21.76;64.42
46534;BME280;32260;52.008;4.752;2022-08-16T04:34:48;100684.31;;;21.75;64.65
46534;BME280;32260;52.008;4.752;2022-08-16T04:37:15;100689.69;;;21.75;64.41
46534;BME280;32260;52.008;4.752;2022-08-16T04:39:41;100689.81;;;21.73;64.50
46534;BME280;32260;52.008;4.752;2022-08-16T04:42:07;100695.09;;;21.75;64.48
46534;BME280;32260;52.008;4.752;2022-08-16T04:44:34;100695.94;;;21.75;64.12
46534;BME280;32260;52.008;4.752;2022-08-16T04:47:00;100693.25;;;21.75;64.47
46534;BME280;32260;52.008;4.752;2022-08-16T04:49:26;100699.53;;;21.76;63.94
46534;BME280;32260;52.008;4.752;2022-08-16T04:51:52;100701.22;;;21.77;64.19
46534;BME280;32260;52.008;4.752;2022-08-16T04:54:18;100693.03;;;21.78;63.84
46534;BME280;32260;52.008;4.752;2022-08-16T04:56:44;100699.28;;;21.79;63.90
46534;BME280;32260;52.008;4.752;2022-08-16T04:59:11;100698.44;;;21.78;63.97
46534;BME280;32260;52.008;4.752;2022-08-16T05:01:37;100699.53;;;21.76;64.10
46534;BME280;32260;52.008;4.752;2022-08-16T05:04:04;100709.13;;;21.80;64.00
46534;BME280;32260;52.008;4.752;2022-08-16T05:06:33;100700.16;;;21.79;63.69
46534;BME280;32260;52.008;4.752;2022-08-16T05:08:59;100717.41;;;21.77;64.03
46534;BME280;32260;52.008;4.752;2022-08-16T05:11:25;100708.78;;;21.72;64.51
46534;BME280;32260;52.008;4.752;2022-08-16T05:13:54;100699.72;;;21.73;64.54
46534;BME280;32260;52.008;4.752;2022-08-16T05:16:25;100708.34;;;21.78;64.20
46534;BME280;32260;52.008;4.752;2022-08-16T05:18:54;100698.44;;;21.78;64.18
46534;BME280;32260;52.008;4.752;2022-08-16T05:21:21;100708.16;;;21.81;63.87
46534;BME280;32260;52.008;4.752;2022-08-16T05:23:48;100705.56;;;21.79;64.04
46534;BME280;32260;52.008;4.752;2022-08-16T05:26:15;100701.22;;;21.77;64.03
46534;BME280;32260;52.008;4.752;2022-08-16T05:28:41;100698.22;;;21.81;63.76
46534;BME280;32260;52.008;4.752;2022-08-16T05:31:07;100697.78;;;21.88;63.58
46534;BME280;32260;52.008;4.752;2022-08-16T05:33:33;100707.50;;;21.90;63.62
46534;BME280;32260;52.008;4.752;2022-08-16T05:35:59;100714.50;;;21.93;63.61
46534;BME280;32260;52.008;4.752;2022-08-16T05:38:26;100712.47;;;21.96;63.51
46534;BME280;32260;52.008;4.752;2022-08-16T05:40:55;100723.03;;;22.00;63.65
46534;BME280;32260;52.008;4.752;2022-08-16T05:43:21;100711.38;;;21.99;63.54
46534;BME280;32260;52.008;4.752;2022-08-16T05:45:48;100721.00;;;22.03;63.74
46534;BME280;32260;52.008;4.752;2022-08-16T05:48:15;100736.09;;;22.06;62.91
46534;BME280;32260;52.008;4.752;2022-08-16T05:50:41;100728.75;;;22.08;63.73
46534;BME280;32260;52.008;4.752;2022-08-16T05:53:07;100734.25;;;22.06;63.71
46534;BME280;32260;52.008;4.752;2022-08-16T05:55:34;100734.38;;;22.05;63.91
46534;BME280;32260;52.008;4.752;2022-08-16T05:58:01;100739.47;;;22.09;63.81
46534;BME280;32260;52.008;4.752;2022-08-16T06:00:27;100739.09;;;22.14;64.26
46534;BME280;32260;52.008;4.752;2022-08-16T06:02:53;100736.22;;;22.17;64.09
46534;BME280;32260;52.008;4.752;2022-08-16T06:05:19;100741.19;;;22.23;63.82
46534;BME280;32260;52.008;4.752;2022-08-16T06:07:45;100741.06;;;22.25;64.34
46534;BME280;32260;52.008;4.752;2022-08-16T06:10:12;100740.75;;;22.29;64.29
46534;BME280;32260;52.008;4.752;2022-08-16T06:12:39;100743.19;;;22.33;64.49
46534;BME280;32260;52.008;4.752;2022-08-16T06:15:09;100744.28;;;22.43;64.04
46534;BME280;32260;52.008;4.752;2022-08-16T06:17:36;100741.59;;;22.43;64.11
46534;BME280;32260;52.008;4.752;2022-08-16T06:20:04;100753.03;;;22.46;64.13
46534;BME280;32260;52.008;4.752;2022-08-16T06:22:30;100752.06;;;22.48;64.62
46534;BME280;32260;52.008;4.752;2022-08-16T06:24:57;100750.78;;;22.53;64.27
46534;BME280;32260;52.008;4.752;2022-08-16T06:27:23;100748.28;;;22.50;64.37
46534;BME280;32260;52.008;4.752;2022-08-16T06:29:50;100743.41;;;22.55;64.28
46534;BME280;32260;52.008;4.752;2022-08-16T06:32:16;100747.84;;;22.56;64.24
46534;BME280;32260;52.008;4.752;2022-08-16T06:34:42;100749.47;;;22.59;64.00
46534;BME280;32260;52.008;4.752;2022-08-16T06:37:08;100753.56;;;22.65;64.31
46534;BME280;32260;52.008;4.752;2022-08-16T06:39:34;100759.69;;;22.67;64.05
46534;BME280;32260;52.008;4.752;2022-08-16T06:42:01;100758.66;;;22.69;63.90
46534;BME280;32260;52.008;4.752;2022-08-16T06:44:27;100764.38;;;22.65;63.99
46534;BME280;32260;52.008;4.752;2022-08-16T06:46:54;100762.31;;;22.68;64.03
46534;BME280;32260;52.008;4.752;2022-08-16T06:49:20;100748.75;;;22.81;63.89
46534;BME280;32260;52.008;4.752;2022-08-16T06:51:46;100746.13;;;22.92;63.45
46534;BME280;32260;52.008;4.752;2022-08-16T06:54:12;100749.25;;;22.99;63.30
46534;BME280;32260;52.008;4.752;2022-08-16T06:56:38;100759.25;;;23.10;63.27
46534;BME280;32260;52.008;4.752;2022-08-16T06:59:04;100743.78;;;23.12;63.19
46534;BME280;32260;52.008;4.752;2022-08-16T07:01:31;100754.81;;;23.22;62.74
46534;BME280;32260;52.008;4.752;2022-08-16T07:03:57;100755.44;;;23.25;62.61
46534;BME280;32260;52.008;4.752;2022-08-16T07:06:24;100763.09;;;23.32;62.56
46534;BME280;32260;52.008;4.752;2022-08-16T07:08:50;100765.56;;;23.35;62.39
46534;BME280;32260;52.008;4.752;2022-08-16T07:11:17;100763.16;;;23.43;62.14
46534;BME280;32260;52.008;4.752;2022-08-16T07:13:45;100760.06;;;23.48;62.01
46534;BME280;32260;52.008;4.752;2022-08-16T07:16:14;100759.00;;;23.50;61.82
46534;BME280;32260;52.008;4.752;2022-08-16T07:18:42;100762.09;;;23.57;61.93
46534;BME280;32260;52.008;4.752;2022-08-16T07:21:10;100776.47;;;23.57;62.05
46534;BME280;32260;52.008;4.752;2022-08-16T07:23:38;100771.84;;;23.71;62.01
46534;BME280;32260;52.008;4.752;2022-08-16T07:26:06;100772.63;;;23.84;61.85
46534;BME280;32260;52.008;4.752;2022-08-16T07:28:33;100774.88;;;23.90;61.64
46534;BME280;32260;52.008;4.752;2022-08-16T07:31:03;100774.06;;;24.01;61.08
46534;BME280;32260;52.008;4.752;2022-08-16T07:33:33;100774.94;;;24.13;61.08
46534;BME280;32260;52.008;4.752;2022-08-16T07:36:03;100774.19;;;24.11;61.10
46534;BME280;32260;52.008;4.752;2022-08-16T07:38:33;100779.53;;;24.24;60.65
46534;BME280;32260;52.008;4.752;2022-08-16T07:40:59;100782.59;;;24.19;60.56
46534;BME280;32260;52.008;4.752;2022-08-16T07:43:26;100790.72;;;24.19;60.47
46534;BME280;32260;52.008;4.752;2022-08-16T07:45:52;100797.84;;;24.20;60.84
46534;BME280;32260;52.008;4.752;2022-08-16T07:48:18;100805.84;;;24.33;60.57
46534;BME280;32260;52.008;4.752;2022-08-16T07:50:45;100801.06;;;24.37;60.77
46534;BME280;32260;52.008;4.752;2022-08-16T07:53:12;100801.81;;;24.28;61.10
46534;BME280;32260;52.008;4.752;2022-08-16T07:55:39;100803.28;;;24.43;60.76
46534;BME280;32260;52.008;4.752;2022-08-16T07:58:06;100812.28;;;24.44;60.75
46534;BME280;32260;52.008;4.752;2022-08-16T08:00:32;100807.97;;;24.64;60.52
46534;BME280;32260;52.008;4.752;2022-08-16T08:02:59;100811.53;;;24.64;60.24
46534;BME280;32260;52.008;4.752;2022-08-16T08:05:26;100812.69;;;24.73;59.79
46534;BME280;32260;52.008;4.752;2022-08-16T08:07:54;100810.22;;;24.81;59.75
46534;BME280;32260;52.008;4.752;2022-08-16T08:10:22;100799.88;;;24.86;59.54
46534;BME280;32260;52.008;4.752;2022-08-16T08:12:51;100802.94;;;24.82;59.00
46534;BME280;32260;52.008;4.752;2022-08-16T08:15:19;100810.44;;;25.01;58.38
46534;BME280;32260;52.008;4.752;2022-08-16T08:17:46;100803.41;;;25.10;58.01
46534;BME280;32260;52.008;4.752;2022-08-16T08:20:18;100801.81;;;25.18;58.27
46534;BME280;32260;52.008;4.752;2022-08-16T08:22:46;100801.50;;;25.33;58.30
46534;BME280;32260;52.008;4.752;2022-08-16T08:25:16;100805.19;;;25.43;57.91
46534;BME280;32260;52.008;4.752;2022-08-16T08:27:43;100807.78;;;25.45;57.59
46534;BME280;32260;52.008;4.752;2022-08-16T08:30:10;100814.06;;;25.45;58.20
46534;BME280;32260;52.008;4.752;2022-08-16T08:32:40;100814.06;;;25.45;57.81
46534;BME280;32260;52.008;4.752;2022-08-16T08:35:07;100814.75;;;25.59;57.41
46534;BME280;32260;52.008;4.752;2022-08-16T08:37:35;100820.28;;;25.68;57.54
46534;BME280;32260;52.008;4.752;2022-08-16T08:40:03;100818.16;;;25.72;57.45
46534;BME280;32260;52.008;4.752;2022-08-16T08:42:30;100824.31;;;25.74;56.81
46534;BME280;32260;52.008;4.752;2022-08-16T08:44:56;100821.28;;;25.89;57.27
46534;BME280;32260;52.008;4.752;2022-08-16T08:47:22;100828.69;;;25.87;57.14
46534;BME280;32260;52.008;4.752;2022-08-16T08:49:48;100828.16;;;25.93;57.17
46534;BME280;32260;52.008;4.752;2022-08-16T08:52:14;100823.19;;;25.98;56.70
46534;BME280;32260;52.008;4.752;2022-08-16T08:54:40;100826.38;;;26.14;56.65
46534;BME280;32260;52.008;4.752;2022-08-16T08:57:07;100826.91;;;26.29;56.02
46534;BME280;32260;52.008;4.752;2022-08-16T08:59:33;100828.94;;;26.37;55.66
46534;BME280;32260;52.008;4.752;2022-08-16T09:02:00;100842.78;;;26.34;55.54
46534;BME280;32260;52.008;4.752;2022-08-16T09:04:27;100835.47;;;26.56;55.08
46534;BME280;32260;52.008;4.752;2022-08-16T09:06:54;100834.88;;;26.52;55.08
46534;BME280;32260;52.008;4.752;2022-08-16T09:09:21;100838.31;;;26.54;55.24
46534;BME280;32260;52.008;4.752;2022-08-16T09:11:48;100844.34;;;26.58;55.21
46534;BME280;32260;52.008;4.752;2022-08-16T09:14:14;100853.97;;;26.62;54.77
46534;BME280;32260;52.008;4.752;2022-08-16T09:16:41;100856.13;;;26.68;54.66
46534;BME280;32260;52.008;4.752;2022-08-16T09:19:07;100858.94;;;26.88;54.39
46534;BME280;32260;52.008;4.752;2022-08-16T09:21:33;100845.72;;;27.04;53.88
46534;BME280;32260;52.008;4.752;2022-08-16T09:23:59;100860.56;;;27.00;53.32
46534;BME280;32260;52.008;4.752;2022-08-16T09:26:25;100855.59;;;27.15;53.28
46534;BME280;32260;52.008;4.752;2022-08-16T09:28:51;100867.25;;;27.27;53.64
46534;BME280;32260;52.008;4.752;2022-08-16T09:31:17;100861.50;;;27.30;52.84
46534;BME280;32260;52.008;4.752;2022-08-16T09:33:44;100859.72;;;27.40;53.56
46534;BME280;32260;52.008;4.752;2022-08-16T09:36:11;100867.34;;;27.47;52.87
46534;BME280;32260;52.008;4.752;2022-08-16T09:38:38;100866.19;;;27.59;52.93
46534;BME280;32260;52.008;4.752;2022-08-16T09:41:06;100869.22;;;27.66;51.99
46534;BME280;32260;52.008;4.752;2022-08-16T09:43:33;100869.06;;;27.77;51.23
46534;BME280;32260;52.008;4.752;2022-08-16T09:46:01;100883.13;;;27.82;51.49
46534;BME280;32260;52.008;4.752;2022-08-16T09:48:28;100874.53;;;27.87;51.09
46534;BME280;32260;52.008;4.752;2022-08-16T09:50:54;100873.06;;;27.92;50.19
46534;BME280;32260;52.008;4.752;2022-08-16T09:53:22;100873.25;;;28.11;50.57
46534;BME280;32260;52.008;4.752;2022-08-16T09:55:52;100874.09;;;28.11;50.67
46534;BME280;32260;52.008;4.752;2022-08-16T09:58:21;100864.50;;;28.17;49.39
46534;BME280;32260;52.008;4.752;2022-08-16T10:00:48;100872.25;;;28.12;49.30
46534;BME280;32260;52.008;4.752;2022-08-16T10:03:16;100867.31;;;28.35;48.93
46534;BME280;32260;52.008;4.752;2022-08-16T10:05:42;100868.47;;;28.42;48.84
46534;BME280;32260;52.008;4.752;2022-08-16T10:08:09;100868.16;;;28.55;49.05
46534;BME280;32260;52.008;4.752;2022-08-16T10:10:35;100859.81;;;28.66;48.62
46534;BME280;32260;52.008;4.752;2022-08-16T10:13:02;100861.44;;;28.97;48.58
46534;BME280;32260;52.008;4.752;2022-08-16T10:15:46;100867.63;;;29.17;47.70
46534;BME280;32260;52.008;4.752;2022-08-16T10:18:13;100869.56;;;29.34;46.69
46534;BME280;32260;52.008;4.752;2022-08-16T10:20:43;100868.06;;;29.50;45.69
46534;BME280;32260;52.008;4.752;2022-08-16T10:23:13;100863.84;;;29.56;44.71
46534;BME280;32260;52.008;4.752;2022-08-16T10:25:42;100860.09;;;29.57;44.16
46534;BME280;32260;52.008;4.752;2022-08-16T10:28:08;100868.22;;;29.66;45.27
46534;BME280;32260;52.008;4.752;2022-08-16T10:30:36;100864.53;;;29.76;44.10
46534;BME280;32260;52.008;4.752;2022-08-16T10:33:03;100861.50;;;29.79;43.91
46534;BME280;32260;52.008;4.752;2022-08-16T10:35:29;100873.44;;;29.78;43.20
46534;BME280;32260;52.008;4.752;2022-08-16T10:37:56;100867.38;;;29.66;43.75
46534;BME280;32260;52.008;4.752;2022-08-16T10:40:22;100870.63;;;29.69;43.69
46534;BME280;32260;52.008;4.752;2022-08-16T10:42:48;100872.59;;;29.77;43.86
46534;BME280;32260;52.008;4.752;2022-08-16T10:45:16;100867.69;;;29.81;44.13
46534;BME280;32260;52.008;4.752;2022-08-16T10:47:43;100870.41;;;29.81;43.43
46534;BME280;32260;52.008;4.752;2022-08-16T10:50:09;100874.44;;;29.77;43.92
46534;BME280;32260;52.008;4.752;2022-08-16T10:52:36;100876.56;;;29.83;43.96
46534;BME280;32260;52.008;4.752;2022-08-16T10:55:03;100877.75;;;29.62;43.15
46534;BME280;32260;52.008;4.752;2022-08-16T10:57:29;100875.75;;;29.54;43.37
46534;BME280;32260;52.008;4.752;2022-08-16T10:59:57;100876.63;;;29.55;43.37
46534;BME280;32260;52.008;4.752;2022-08-16T11:02:24;100882.72;;;29.49;43.17
46534;BME280;32260;52.008;4.752;2022-08-16T11:04:51;100884.38;;;29.60;43.69
46534;BME280;32260;52.008;4.752;2022-08-16T11:07:18;100889.50;;;29.63;42.93
46534;BME280;32260;52.008;4.752;2022-08-16T11:09:45;100895.81;;;29.63;43.52
46534;BME280;32260;52.008;4.752;2022-08-16T11:12:11;100890.84;;;29.77;43.16
46534;BME280;32260;52.008;4.752;2022-08-16T11:14:37;100898.97;;;29.68;43.20
46534;BME280;32260;52.008;4.752;2022-08-16T11:17:04;100888.75;;;29.89;42.79
46534;BME280;32260;52.008;4.752;2022-08-16T11:19:31;100891.03;;;29.93;42.08
46534;BME280;32260;52.008;4.752;2022-08-16T11:21:58;100905.09;;;29.98;40.96
46534;BME280;32260;52.008;4.752;2022-08-16T11:24:25;100897.31;;;30.30;40.46
46534;BME280;32260;52.008;4.752;2022-08-16T11:26:52;100899.97;;;30.40;40.67
46534;BME280;32260;52.008;4.752;2022-08-16T11:29:18;100900.00;;;30.48;40.80
46534;BME280;32260;52.008;4.752;2022-08-16T11:31:45;100900.44;;;30.53;41.56
46534;BME280;32260;52.008;4.752;2022-08-16T11:34:13;100892.63;;;30.66;41.27
46534;BME280;32260;52.008;4.752;2022-08-16T11:36:39;100899.94;;;30.58;41.78
46534;BME280;32260;52.008;4.752;2022-08-16T11:39:05;100897.72;;;30.53;41.59
46534;BME280;32260;52.008;4.752;2022-08-16T11:41:31;100900.44;;;30.53;41.50
46534;BME280;32260;52.008;4.752;2022-08-16T11:44:00;100902.19;;;30.62;41.36
46534;BME280;32260;52.008;4.752;2022-08-16T11:46:27;100916.59;;;30.73;41.40
46534;BME280;32260;52.008;4.752;2022-08-16T11:48:53;100902.66;;;30.84;40.89
46534;BME280;32260;52.008;4.752;2022-08-16T11:51:20;100899.63;;;30.95;40.25
46534;BME280;32260;52.008;4.752;2022-08-16T11:53:46;100904.63;;;31.00;40.21
46534;BME280;32260;52.008;4.752;2022-08-16T11:56:12;100902.16;;;31.15;40.59
46534;BME280;32260;52.008;4.752;2022-08-16T11:58:38;100908.34;;;31.25;40.82
46534;BME280;32260;52.008;4.752;2022-08-16T12:01:05;100908.75;;;31.39;40.11
46534;BME280;32260;52.008;4.752;2022-08-16T12:03:32;100911.47;;;31.30;39.64
46534;BME280;32260;52.008;4.752;2022-08-16T12:06:00;100908.44;;;31.50;40.04
46534;BME280;32260;52.008;4.752;2022-08-16T12:08:30;100913.91;;;31.42;39.98
46534;BME280;32260;52.008;4.752;2022-08-16T12:10:56;100912.84;;;31.35;39.81
46534;BME280;32260;52.008;4.752;2022-08-16T12:13:25;100910.47;;;31.40;40.32
46534;BME280;32260;52.008;4.752;2022-08-16T12:15:51;100912.88;;;31.51;40.77
46534;BME280;32260;52.008;4.752;2022-08-16T12:18:17;100917.66;;;31.41;38.73
46534;BME280;32260;52.008;4.752;2022-08-16T12:20:44;100924.69;;;31.43;38.82
46534;BME280;32260;52.008;4.752;2022-08-16T12:23:11;100921.72;;;31.28;38.84
46534;BME280;32260;52.008;4.752;2022-08-16T12:25:37;100927.69;;;31.24;38.88
46534;BME280;32260;52.008;4.752;2022-08-16T12:28:05;100931.06;;;30.83;38.44
46534;BME280;32260;52.008;4.752;2022-08-16T12:30:35;100931.41;;;30.88;38.60
46534;BME280;32260;52.008;4.752;2022-08-16T12:33:03;100936.19;;;30.86;39.04
46534;BME280;32260;52.008;4.752;2022-08-16T12:35:31;100934.47;;;30.85;39.13
46534;BME280;32260;52.008;4.752;2022-08-16T12:38:01;100935.19;;;30.95;39.58
46534;BME280;32260;52.008;4.752;2022-08-16T12:40:31;100937.72;;;31.07;39.37
46534;BME280;32260;52.008;4.752;2022-08-16T12:42:59;100932.09;;;31.17;39.64
46534;BME280;32260;52.008;4.752;2022-08-16T12:45:33;100929.53;;;31.15;39.04
46534;BME280;32260;52.008;4.752;2022-08-16T12:48:00;100933.03;;;31.34;40.21
46534;BME280;32260;52.008;4.752;2022-08-16T12:50:46;100938.84;;;31.30;38.27